Flugplatz Dahlemer Binz

Für EDKV sind keine METAR/TAF Berichte vorhanden.
Es werden die Flugwettermeldungen vom Flugplatz Buchel Airport in 45 km Entfernung angezeigt.

Bericht für ETSB

vom 17.09. um 13:20 UTC

Wind 8 kt aus 320°

Sichtweite 10 km oder mehr

aufgelockert bewölkt in 3500 ft

aufgelockert bewölkt in 28000 ft

Temperatur 15.0°C

Taupunkt 6.0°C

Luftfeuchtigkeit 55%

Luftdruck 1021 hPa

ETSB 171320Z 32008KT 9999 SCT035 SCT280 15/06 Q1021 BLU+BLU+

Prognose für ETSB

vom 17.09. um 00:00 UTC

Zwischen 00:00 UTC und 00:00 UTC

Wind 8 kt aus 330°

Sichtweite 10 km oder mehr

keine signifikanten Wettererscheinungen

aufgelockert bewölkt in 4000 ft

aufgelockert bewölkt in 28000 ft

TAF ETSB 171320Z 1714/1723 33008KT 9999 NSW SCT040 SCT280 BY ETGL
Impressum